Time;durP1;ratioP1;P1;durP2;ratioP2;P2;SDS_P1;SDS_P2;PMS_P1;PMS_P2;Temp;Humidity;BMP_temperature;BMP_pressure;BME280_temperature;BME280_humidity;BME280_pressure;Samples;Min_cycle;Max_cycle;Signal;HPM_P1;HPM_P2
2023/05/02 00:01:57;;;;;;;7.97;5.38;;;;;;;10.21;100.00;100965.03;5030845;28;20048;-70
2023/05/02 00:04:23;;;;;;;7.18;5.13;;;;;;;10.99;100.00;101118.94;5024987;28;20044;-71
2023/05/02 00:06:51;;;;;;;7.65;4.78;;;;;;;9.73;100.00;100907.72;5016356;28;20021;-70
2023/05/02 00:09:17;;;;;;;6.57;4.60;;;;;;;10.15;100.00;101006.06;5027803;28;20768;-70
2023/05/02 00:11:42;;;;;;;10.90;5.32;;;;;;;10.69;100.00;101111.63;5027918;28;20046;-71
2023/05/02 00:14:08;;;;;;;9.38;5.85;;;;;;;10.69;100.00;101113.38;5035997;28;20044;-70
2023/05/02 00:16:33;;;;;;;6.35;4.70;;;;;;;10.95;100.00;101139.91;5040269;28;20051;-70
2023/05/02 00:18:58;;;;;;;7.30;4.50;;;;;;;11.34;100.00;101157.78;5032085;28;20067;-70
2023/05/02 00:21:24;;;;;;;8.23;5.60;;;;;;;10.11;100.00;101025.28;5046133;28;20036;-71
2023/05/02 00:23:52;;;;;;;8.88;5.53;;;;;;;10.85;100.00;101154.69;5034893;28;20052;-69
2023/05/02 00:26:18;;;;;;;8.32;5.88;;;;;;;10.31;100.00;101070.09;5042823;28;20052;-70
2023/05/02 00:28:43;;;;;;;7.93;5.22;;;;;;;10.14;100.00;101042.78;5030458;28;20041;-69
2023/05/02 00:31:09;;;;;;;8.35;5.93;;;;;;;10.50;100.00;101149.91;5033334;28;20037;-70
2023/05/02 00:33:34;;;;;;;11.13;7.63;;;;;;;10.41;100.00;101144.53;5039064;28;20025;-70
2023/05/02 00:36:00;;;;;;;8.55;6.88;;;;;;;10.27;100.00;101136.47;5027660;28;20080;-70
2023/05/02 00:38:25;;;;;;;8.65;6.07;;;;;;;9.50;100.00;101019.22;5036248;28;20045;-70
2023/05/02 00:40:52;;;;;;;13.05;6.13;;;;;;;9.34;100.00;101002.44;5027896;28;20633;-70
2023/05/02 00:43:17;;;;;;;8.27;4.95;;;;;;;9.35;100.00;101034.72;5034405;28;20072;-69
2023/05/02 00:45:45;;;;;;;4.88;3.67;;;;;;;9.98;100.00;101138.72;5048736;28;20073;-70
2023/05/02 00:48:11;;;;;;;9.00;6.25;;;;;;;10.04;100.00;101157.13;5030020;28;20041;-70
2023/05/02 00:50:41;;;;;;;5.82;4.45;;;;;;;9.82;100.00;101139.34;5038125;28;20508;-69
2023/05/02 00:53:08;;;;;;;7.80;4.38;;;;;;;9.92;100.00;101165.69;5032111;28;20049;-69
2023/05/02 00:55:34;;;;;;;6.05;3.78;;;;;;;9.18;100.00;101044.94;5032118;28;20037;-69
2023/05/02 00:58:06;;;;;;;7.32;3.75;;;;;;;9.77;100.00;101157.63;5037257;28;20029;-70
2023/05/02 01:01:03;;;;;;;5.43;4.13;;;;;;;9.74;100.00;101154.97;5029737;28;20083;-69
2023/05/02 01:03:29;;;;;;;5.28;3.50;;;;;;;9.66;100.00;101160.06;5021640;28;20137;-70
2023/05/02 01:06:22;;;;;;;6.10;4.22;;;;;;;8.85;100.00;101023.47;5023830;28;20120;-70
2023/05/02 01:09:03;;;;;;;7.70;4.43;;;;;;;9.69;100.00;101157.53;5037227;28;20085;-70
2023/05/02 01:12:02;;;;;;;5.25;3.53;;;;;;;8.85;100.00;101052.25;5034026;28;20099;-70
2023/05/02 01:14:30;;;;;;;7.55;4.82;;;;;;;8.68;100.00;101045.84;5039823;28;20045;-69
2023/05/02 01:16:58;;;;;;;11.07;6.88;;;;;;;8.67;100.00;101038.84;5041414;28;20045;-69
2023/05/02 01:19:40;;;;;;;6.38;3.83;;;;;;;8.63;100.00;101047.50;5034719;28;20041;-70
2023/05/02 01:22:08;;;;;;;8.70;4.60;;;;;;;9.18;100.00;101144.44;5035165;28;20033;-69
2023/05/02 01:24:45;;;;;;;5.28;3.80;;;;;;;9.25;100.00;101162.03;5045220;28;20044;-70
2023/05/02 01:27:13;;;;;;;8.65;3.72;;;;;;;9.26;100.00;101174.25;5043186;28;20063;-69
2023/05/02 01:29:41;;;;;;;6.10;3.67;;;;;;;9.00;100.00;101148.47;5046860;28;20142;-70
2023/05/02 01:32:09;;;;;;;6.82;3.75;;;;;;;9.00;100.00;101127.53;5047422;28;20068;-71
2023/05/02 01:34:39;;;;;;;7.88;4.20;;;;;;;9.14;100.00;101194.97;5045435;28;20055;-71
2023/05/02 01:37:06;;;;;;;0.80;0.60;;;;;;;9.06;100.00;101177.41;5048467;28;20045;-71
2023/05/02 01:39:33;;;;;;;4.85;3.45;;;;;;;8.93;100.00;101166.66;5049428;28;20032;-70
2023/05/02 01:42:02;;;;;;;7.30;5.22;;;;;;;8.37;100.00;101062.66;5031970;28;20037;-71
2023/05/02 01:44:29;;;;;;;7.13;3.33;;;;;;;8.95;100.00;101162.34;5041818;28;20056;-71
2023/05/02 01:46:56;;;;;;;7.55;3.80;;;;;;;9.09;100.00;101182.69;5038899;28;20041;-70
2023/05/02 01:49:24;;;;;;;6.35;3.20;;;;;;;8.48;100.00;101102.16;5028566;28;20034;-71
2023/05/02 01:51:51;;;;;;;6.25;3.85;;;;;;;8.76;100.00;101174.19;5029932;28;20044;-69
2023/05/02 01:54:19;;;;;;;1.58;0.85;;;;;;;8.79;100.00;101179.47;5031959;28;20061;-71
2023/05/02 01:56:46;;;;;;;6.45;4.22;;;;;;;8.60;100.00;101157.31;5035935;28;20048;-69
2023/05/02 01:59:18;;;;;;;6.25;3.38;;;;;;;8.88;100.00;101188.38;5027225;28;20107;-72
2023/05/02 02:01:45;;;;;;;0.95;0.95;;;;;;;8.56;100.00;101166.81;5026346;28;20049;-70
2023/05/02 02:04:13;;;;;;;0.98;0.85;;;;;;;8.72;100.00;101188.06;5031865;28;20045;-70
2023/05/02 02:06:43;;;;;;;6.28;3.08;;;;;;;8.81;100.00;101185.63;5038869;28;20037;-70
2023/05/02 02:09:09;;;;;;;9.52;3.95;;;;;;;8.80;100.00;101178.63;5040751;28;20497;-70
2023/05/02 02:11:55;;;;;;;4.25;2.88;;;;;;;8.72;100.00;101188.06;5032824;28;20049;-72
2023/05/02 02:14:24;;;;;;;7.53;4.43;;;;;;;8.09;100.00;101093.47;5041297;28;20523;-70
2023/05/02 02:16:54;;;;;;;5.43;3.08;;;;;;;8.63;100.00;101173.94;5032913;28;20557;-69
2023/05/02 02:19:21;;;;;;;5.00;3.22;;;;;;;8.00;100.00;101072.38;5028166;28;20042;-72
2023/05/02 02:21:49;;;;;;;6.15;3.65;;;;;;;8.49;100.00;101171.91;5028778;28;20106;-70
2023/05/02 02:24:17;;;;;;;2.38;1.25;;;;;;;8.23;100.00;101125.13;5032507;28;20149;-70
2023/05/02 02:26:43;;;;;;;1.55;0.40;;;;;;;8.54;100.00;101162.41;5037455;28;20052;-70
2023/05/02 02:29:08;;;;;;;1.48;1.38;;;;;;;8.42;100.00;101169.13;5047409;28;20071;-70
2023/05/02 02:31:35;;;;;;;5.07;3.53;;;;;;;8.68;100.00;101194.97;5047182;28;20049;-71
2023/05/02 02:34:01;;;;;;;7.45;3.97;;;;;;;8.63;100.00;101194.88;5045147;28;20047;-71
2023/05/02 02:36:33;;;;;;;8.57;3.35;;;;;;;8.01;100.00;101074.16;5046606;28;20025;-71
2023/05/02 02:39:08;;;;;;;4.88;3.05;;;;;;;7.85;100.00;101067.72;5046360;28;20049;-70
2023/05/02 02:41:54;;;;;;;7.78;3.40;;;;;;;8.67;100.00;101201.06;5039385;28;20049;-70
2023/05/02 02:44:29;;;;;;;0.73;0.68;;;;;;;8.70;100.00;101214.19;5047035;28;20047;-69
2023/05/02 02:47:07;;;;;;;5.72;3.33;;;;;;;8.64;100.00;101204.50;5046952;28;20156;-70
2023/05/02 02:49:48;;;;;;;6.45;3.72;;;;;;;8.57;100.00;101205.22;5047139;28;20040;-69
2023/05/02 02:52:24;;;;;;;7.70;4.10;;;;;;;8.48;100.00;101188.47;5042627;28;20060;-70
2023/05/02 02:55:05;;;;;;;7.55;3.85;;;;;;;8.59;100.00;101210.47;5045607;28;20032;-70
2023/05/02 02:57:48;;;;;;;6.38;3.58;;;;;;;7.78;100.00;101086.72;5047681;28;20369;-71
2023/05/02 03:00:23;;;;;;;0.75;0.63;;;;;;;8.40;100.00;101204.84;5037948;28;20057;-70
2023/05/02 03:02:52;;;;;;;1.15;1.08;;;;;;;8.17;100.00;101166.81;5036437;28;20064;-70
2023/05/02 03:05:18;;;;;;;1.95;1.52;;;;;;;8.30;100.00;101194.13;5019109;28;20632;-70
2023/05/02 03:07:43;;;;;;;5.78;3.63;;;;;;;8.45;100.00;101216.31;5031901;28;20037;-71
2023/05/02 03:10:10;;;;;;;5.88;3.58;;;;;;;7.63;100.00;101086.34;5033741;28;20080;-69
2023/05/02 03:12:36;;;;;;;9.15;3.83;;;;;;;8.45;100.00;101228.47;5027423;28;20036;-69
2023/05/02 03:15:29;;;;;;;6.35;3.30;;;;;;;8.43;100.00;101228.47;5040162;28;20049;-70
2023/05/02 03:17:54;;;;;;;7.47;4.83;;;;;;;7.90;100.00;101125.28;5031717;28;20057;-70
2023/05/02 03:20:20;;;;;;;9.20;4.38;;;;;;;8.42;100.00;101215.34;5027890;28;20446;-70
2023/05/02 03:22:45;;;;;;;14.30;1.48;;;;;;;7.70;100.00;101101.31;5031723;28;20053;-69
2023/05/02 03:25:11;;;;;;;5.15;3.38;;;;;;;8.54;100.00;101230.41;5030473;28;20094;-71
2023/05/02 03:27:36;;;;;;;6.00;3.22;;;;;;;8.50;100.00;101234.72;5028347;28;20194;-70
2023/05/02 03:30:02;;;;;;;5.22;3.20;;;;;;;8.42;100.00;101218.84;5032314;28;20088;-70
2023/05/02 03:32:28;;;;;;;7.18;2.97;;;;;;;7.80;100.00;101113.75;5031680;28;20474;-70
2023/05/02 03:34:57;;;;;;;2.05;1.45;;;;;;;8.64;100.00;101222.81;5029753;28;20096;-70
2023/05/02 03:37:23;;;;;;;9.07;3.88;;;;;;;8.63;100.00;101236.72;5031909;28;20401;-70
2023/05/02 03:39:48;;;;;;;5.93;3.90;;;;;;;7.79;100.00;101117.19;5028885;28;20033;-70
2023/05/02 03:42:14;;;;;;;4.65;3.15;;;;;;;8.68;100.00;101230.72;5034466;28;20103;-70
2023/05/02 03:44:39;;;;;;;6.00;3.58;;;;;;;8.46;100.00;101209.34;5032487;28;20047;-71
2023/05/02 03:47:06;;;;;;;2.13;1.95;;;;;;;8.23;100.00;101187.88;5037877;28;20046;-70
2023/05/02 03:49:33;;;;;;;4.03;2.80;;;;;;;8.55;100.00;101251.38;5029543;28;20408;-71
2023/05/02 03:51:59;;;;;;;6.65;3.05;;;;;;;8.15;100.00;101161.56;5035919;28;20053;-70
2023/05/02 03:54:25;;;;;;;7.00;4.03;;;;;;;7.94;100.00;101127.13;5018293;28;20029;-71
2023/05/02 03:56:53;;;;;;;5.55;3.40;;;;;;;8.77;100.00;101271.03;5041209;28;20856;-71
2023/05/02 03:59:19;;;;;;;5.45;3.22;;;;;;;8.85;100.00;101265.97;5032797;28;20041;-71
2023/05/02 04:01:47;;;;;;;3.85;2.55;;;;;;;8.95;100.00;101274.91;5035565;28;20059;-70
2023/05/02 04:04:13;;;;;;;4.25;2.80;;;;;;;8.42;100.00;101171.75;5033768;28;20450;-70
2023/05/02 04:06:39;;;;;;;7.95;3.58;;;;;;;8.91;100.00;101257.34;5017278;28;20033;-70
2023/05/02 04:09:04;;;;;;;5.97;3.50;;;;;;;8.95;100.00;101265.31;5039338;28;20518;-70
2023/05/02 04:11:30;;;;;;;5.88;2.67;;;;;;;8.92;100.00;101251.25;5034511;28;20042;-70
2023/05/02 04:13:55;;;;;;;5.75;3.22;;;;;;;9.25;100.00;101292.97;5040135;28;20709;-71
2023/05/02 04:16:21;;;;;;;7.15;3.13;;;;;;;8.62;100.00;101180.03;5037940;28;20068;-70
2023/05/02 04:18:46;;;;;;;6.57;3.58;;;;;;;8.51;100.00;101168.47;5030607;28;20069;-69
2023/05/02 04:21:12;;;;;;;6.38;2.47;;;;;;;8.78;100.00;101186.47;5030936;28;20041;-70
2023/05/02 04:23:38;;;;;;;6.55;2.65;;;;;;;8.69;100.00;101182.78;5038330;28;20052;-70
2023/05/02 04:26:03;;;;;;;14.68;2.17;;;;;;;8.82;100.00;101174.31;5034677;28;20117;-70
2023/05/02 04:28:29;;;;;;;4.28;2.88;;;;;;;8.97;100.00;101205.16;5035849;28;20489;-70
2023/05/02 04:30:55;;;;;;;4.38;2.85;;;;;;;9.56;100.00;101304.91;5018541;28;20025;-70
2023/05/02 04:33:20;;;;;;;4.47;2.80;;;;;;;9.67;100.00;101298.13;5034451;28;20079;-70
2023/05/02 04:35:46;;;;;;;8.57;3.28;;;;;;;9.81;100.00;101314.09;5033339;28;20057;-70
2023/05/02 04:38:11;;;;;;;3.83;2.58;;;;;;;9.61;100.00;101268.28;5030874;28;20041;-70
2023/05/02 04:40:37;;;;;;;6.38;3.10;;;;;;;9.17;100.00;101184.56;5032606;28;20037;-69
2023/05/02 04:43:03;;;;;;;3.90;2.35;;;;;;;9.44;100.00;101213.88;5031805;28;20044;-72
2023/05/02 04:45:28;;;;;;;5.18;2.88;;;;;;;9.52;100.00;101216.59;5045920;28;20111;-71
2023/05/02 04:47:54;;;;;;;4.47;2.40;;;;;;;10.10;100.00;101316.31;5031903;28;20042;-70
2023/05/02 04:50:19;;;;;;;8.43;3.22;;;;;;;10.34;100.00;101308.84;5042380;28;20095;-71
2023/05/02 04:52:45;;;;;;;6.47;2.75;;;;;;;10.51;100.00;101322.25;5044949;28;20374;-72
2023/05/02 04:55:10;;;;;;;5.68;2.90;;;;;;;9.81;100.00;101196.13;5032651;28;20091;-70
2023/05/02 04:57:36;;;;;;;6.05;3.13;;;;;;;10.41;100.00;101280.09;5037920;28;20049;-70
2023/05/02 05:00:01;;;;;;;5.85;3.03;;;;;;;9.97;100.00;101186.75;5037498;28;20044;-71
2023/05/02 05:02:27;;;;;;;4.97;2.67;;;;;;;10.44;100.00;101243.41;5033327;28;20054;-70
2023/05/02 05:04:52;;;;;;;4.13;2.92;;;;;;;11.03;100.00;101321.19;5029179;28;20041;-72
2023/05/02 05:07:18;;;;;;;5.45;2.80;;;;;;;11.22;100.00;101327.56;5031084;28;20040;-71
2023/05/02 05:09:43;;;;;;;4.72;2.78;;;;;;;10.66;100.00;101218.34;5031319;28;20077;-71
2023/05/02 05:12:09;;;;;;;4.28;2.53;;;;;;;11.42;100.00;101336.56;5033888;28;20037;-70
2023/05/02 05:14:36;;;;;;;8.13;3.20;;;;;;;11.33;100.00;101310.16;5041454;28;20041;-71
2023/05/02 05:17:01;;;;;;;4.70;2.58;;;;;;;11.74;100.00;101309.72;5033438;28;20485;-70
2023/05/02 05:19:27;;;;;;;4.32;2.85;;;;;;;12.15;100.00;101333.81;5029169;28;20042;-70
2023/05/02 05:21:52;;;;;;;6.55;3.35;;;;;;;12.00;100.00;101203.03;5029495;28;20460;-71
2023/05/02 05:24:18;;;;;;;4.45;3.05;;;;;;;13.28;95.14;101333.66;5031976;28;20116;-71
2023/05/02 05:26:43;;;;;;;4.57;2.45;;;;;;;12.76;89.42;101222.78;5033235;28;20052;-71
2023/05/02 05:29:09;;;;;;;7.32;3.05;;;;;;;14.29;85.85;101247.56;5034250;28;20080;-70
2023/05/02 05:31:35;;;;;;;4.32;2.53;;;;;;;15.41;72.58;101218.91;5030489;28;20823;-70
2023/05/02 05:34:01;;;;;;;4.40;2.53;;;;;;;15.69;69.24;101218.72;5032781;28;20041;-71
2023/05/02 05:36:26;;;;;;;4.47;2.60;;;;;;;16.56;64.16;101343.31;5038472;28;20562;-71
2023/05/02 05:38:52;;;;;;;2.78;1.58;;;;;;;17.44;61.20;101343.19;5035605;28;20076;-71
2023/05/02 05:41:18;;;;;;;6.43;3.08;;;;;;;17.70;62.21;101338.41;5055199;28;20041;-70
2023/05/02 05:43:43;;;;;;;3.42;1.92;;;;;;;18.06;59.47;101343.22;5049425;28;20182;-69
2023/05/02 05:46:08;;;;;;;8.93;2.35;;;;;;;17.62;57.32;101305.78;5054697;28;20500;-72
2023/05/02 05:48:34;;;;;;;4.80;2.47;;;;;;;18.01;55.70;101318.50;5049862;28;20075;-70
2023/05/02 05:51:06;;;;;;;5.00;2.88;;;;;;;17.25;56.10;101319.56;5060224;28;20048;-70
2023/05/02 05:53:31;;;;;;;6.35;2.30;;;;;;;16.06;61.20;101339.31;5061346;28;20058;-69
2023/05/02 05:55:58;;;;;;;5.88;3.05;;;;;;;14.80;65.05;101235.13;5053289;28;20049;-68
2023/05/02 05:58:23;;;;;;;8.48;3.15;;;;;;;15.93;63.31;101343.84;5047796;28;20515;-70
2023/05/02 06:00:49;;;;;;;4.43;2.55;;;;;;;16.46;65.30;101347.81;5047530;28;20033;-70
2023/05/02 06:03:15;;;;;;;5.15;2.22;;;;;;;17.95;59.56;101354.00;5043820;28;20077;-71
2023/05/02 06:05:41;;;;;;;7.13;3.70;;;;;;;17.84;59.39;101335.59;5047035;28;20056;-70
2023/05/02 06:08:07;;;;;;;4.68;2.20;;;;;;;18.11;57.71;101237.75;5047484;28;20071;-69
2023/05/02 06:10:33;;;;;;;3.67;1.90;;;;;;;18.62;57.16;101285.53;5045488;28;20080;-68
2023/05/02 06:12:58;;;;;;;12.23;4.85;;;;;;;19.02;56.03;101345.06;5047820;28;20037;-68
2023/05/02 06:15:24;;;;;;;3.72;2.63;;;;;;;17.66;58.20;101331.38;5046522;28;20500;-70
2023/05/02 06:17:50;;;;;;;4.68;2.05;;;;;;;16.43;64.44;101247.16;5047579;28;20173;-71
2023/05/02 06:20:16;;;;;;;3.90;2.05;;;;;;;16.43;65.96;101318.69;5047779;28;20072;-69
2023/05/02 06:22:41;;;;;;;3.92;2.22;;;;;;;16.62;66.91;101221.34;5047661;28;20072;-71
2023/05/02 06:25:07;;;;;;;3.22;1.80;;;;;;;18.21;61.02;101263.25;5047762;28;20033;-69
2023/05/02 06:27:33;;;;;;;4.82;2.25;;;;;;;17.16;65.63;101329.41;5047860;28;20469;-70
2023/05/02 06:29:59;;;;;;;4.32;2.65;;;;;;;16.36;67.47;101357.59;5046093;28;20413;-70
2023/05/02 06:32:25;;;;;;;5.85;2.65;;;;;;;17.24;68.66;101346.13;5045686;28;20095;-71
2023/05/02 06:34:50;;;;;;;6.22;1.45;;;;;;;16.36;70.98;101271.97;5046747;28;20041;-69
2023/05/02 06:37:16;;;;;;;6.45;3.65;;;;;;;18.47;63.67;101337.22;5046720;28;20575;-70
2023/05/02 06:39:41;;;;;;;4.55;2.22;;;;;;;18.16;61.31;101224.41;5047479;28;20075;-69
2023/05/02 06:42:07;;;;;;;3.75;1.38;;;;;;;18.92;57.66;101288.53;5018090;28;20049;-70
2023/05/02 06:44:32;;;;;;;4.47;1.63;;;;;;;17.76;57.68;101211.78;5025834;28;20048;-70
2023/05/02 06:46:57;;;;;;;4.43;1.95;;;;;;;18.39;59.07;101317.84;5027346;28;20072;-70
2023/05/02 06:49:23;;;;;;;7.10;3.15;;;;;;;16.21;66.98;101294.19;5027333;28;20097;-68
2023/05/02 06:51:49;;;;;;;4.63;2.42;;;;;;;17.09;65.65;101212.81;5025985;28;20441;-69
2023/05/02 06:54:15;;;;;;;4.20;1.92;;;;;;;18.09;66.00;101309.50;5028067;28;20052;-70
2023/05/02 06:56:41;;;;;;;3.78;2.13;;;;;;;17.01;68.18;101341.97;5038336;28;20037;-69
2023/05/02 06:59:07;;;;;;;2.88;1.92;;;;;;;17.19;67.44;101294.91;5028048;28;20583;-69
2023/05/02 07:01:32;;;;;;;5.65;2.92;;;;;;;17.08;72.20;101314.47;5032013;28;20462;-69
2023/05/02 07:04:03;;;;;;;4.32;2.22;;;;;;;17.45;69.12;101306.03;5031689;28;20048;-69
2023/05/02 07:06:28;;;;;;;3.40;1.77;;;;;;;16.37;71.68;101218.09;5016008;28;20124;-70
2023/05/02 07:08:54;;;;;;;3.38;2.33;;;;;;;17.56;65.68;101328.88;5036308;28;20760;-70
2023/05/02 07:11:22;;;;;;;7.00;2.47;;;;;;;16.61;72.45;101207.22;5033068;28;20409;-69
2023/05/02 07:13:47;;;;;;;2.65;1.35;;;;;;;16.83;69.97;101206.97;5035575;28;20033;-69
2023/05/02 07:16:13;;;;;;;3.35;1.52;;;;;;;16.33;75.63;101322.31;5034658;28;20045;-70
2023/05/02 07:18:39;;;;;;;5.80;2.13;;;;;;;16.37;74.46;101232.22;5026599;28;20127;-71
2023/05/02 07:21:05;;;;;;;4.90;2.33;;;;;;;16.27;78.06;101309.13;5033905;28;20656;-70
2023/05/02 07:23:30;;;;;;;3.40;2.13;;;;;;;16.97;75.90;101313.72;5033349;28;20049;-70
2023/05/02 07:25:56;;;;;;;4.78;1.83;;;;;;;16.73;78.59;101285.69;5051041;28;20359;-70
2023/05/02 07:28:21;;;;;;;3.33;2.15;;;;;;;16.31;78.51;101141.34;5046371;28;20041;-71
2023/05/02 07:30:46;;;;;;;9.75;3.10;;;;;;;16.88;74.38;101214.00;5026916;28;20386;-70
2023/05/02 07:33:14;;;;;;;5.63;2.83;;;;;;;17.10;74.75;101205.72;5032055;28;20136;-68
2023/05/02 07:35:40;;;;;;;3.75;2.80;;;;;;;17.20;76.08;101217.94;5023343;28;20052;-69
2023/05/02 07:38:05;;;;;;;4.45;2.30;;;;;;;17.11;80.49;101209.25;5029693;28;20076;-68
2023/05/02 07:40:31;;;;;;;3.53;2.00;;;;;;;16.07;83.75;101171.66;5026225;28;20679;-69
2023/05/02 07:42:59;;;;;;;6.10;2.67;;;;;;;17.02;82.06;101295.09;5028455;28;20041;-71
2023/05/02 07:45:25;;;;;;;7.82;3.08;;;;;;;17.30;84.29;101309.78;5030114;28;20124;-69
2023/05/02 07:47:50;;;;;;;9.80;2.97;;;;;;;17.70;79.63;101322.50;5035365;28;20128;-69
2023/05/02 07:50:16;;;;;;;7.13;2.25;;;;;;;17.22;78.69;101207.34;5035027;28;20042;-70
2023/05/02 07:52:42;;;;;;;4.00;2.30;;;;;;;17.32;76.46;101266.44;5027127;28;20413;-71
2023/05/02 07:55:07;;;;;;;3.90;2.13;;;;;;;17.30;72.73;101213.38;5034649;28;20049;-70
2023/05/02 07:57:33;;;;;;;5.22;2.58;;;;;;;17.44;78.97;101239.72;5036106;28;20040;-69
2023/05/02 07:59:58;;;;;;;3.70;1.52;;;;;;;18.21;75.77;101329.66;5037437;28;20076;-70
2023/05/02 08:02:24;;;;;;;4.47;1.75;;;;;;;17.60;69.56;101229.75;5030310;28;20485;-71
2023/05/02 08:04:50;;;;;;;3.15;1.60;;;;;;;18.20;61.60;101332.38;5024759;28;20041;-69
2023/05/02 08:07:17;;;;;;;1.70;1.10;;;;;;;17.88;61.28;101230.19;5023123;28;20041;-70
2023/05/02 08:09:42;;;;;;;5.57;2.33;;;;;;;18.34;63.97;101338.31;5041952;28;20065;-69
2023/05/02 08:12:08;;;;;;;2.97;1.95;;;;;;;18.13;65.07;101336.91;5031160;28;20040;-69
2023/05/02 08:14:33;;;;;;;14.85;2.05;;;;;;;17.68;64.46;101222.53;5030444;28;20049;-69
2023/05/02 08:16:59;;;;;;;4.60;2.58;;;;;;;17.96;65.01;101227.41;5032680;28;20511;-69
2023/05/02 08:19:25;;;;;;;5.50;1.95;;;;;;;18.90;62.05;101343.53;5034939;28;20079;-69
2023/05/02 08:21:53;;;;;;;4.57;1.83;;;;;;;18.52;57.58;101284.84;5029304;28;20408;-69
2023/05/02 08:24:18;;;;;;;5.93;1.95;;;;;;;18.98;59.76;101331.81;5028136;28;20366;-70
2023/05/02 08:26:44;;;;;;;4.68;2.47;;;;;;;18.95;55.26;101346.97;5036322;28;20060;-69
2023/05/02 08:29:10;;;;;;;4.43;1.67;;;;;;;18.86;59.32;101284.19;5035297;28;20041;-71
2023/05/02 08:31:36;;;;;;;3.90;1.67;;;;;;;18.24;61.36;101234.00;5036948;28;20114;-70
2023/05/02 08:34:02;;;;;;;3.63;2.08;;;;;;;19.14;54.17;101340.38;5026777;28;20041;-71
2023/05/02 08:36:27;;;;;;;5.78;2.50;;;;;;;19.73;53.56;101331.13;5043387;28;20045;-69
2023/05/02 08:38:53;;;;;;;3.45;1.95;;;;;;;19.52;50.92;101325.34;5028730;28;20526;-71
2023/05/02 08:41:19;;;;;;;3.70;1.95;;;;;;;19.85;51.10;101319.31;5032210;28;20112;-70
2023/05/02 08:43:45;;;;;;;4.45;1.77;;;;;;;19.41;50.21;101226.25;5033204;28;20107;-70
2023/05/02 08:46:13;;;;;;;3.50;1.33;;;;;;;19.19;48.81;101183.28;5042444;28;20512;-71
2023/05/02 08:48:40;;;;;;;3.08;1.63;;;;;;;19.48;49.24;101142.69;5027746;28;20037;-70
2023/05/02 08:51:14;;;;;;;3.30;1.73;;;;;;;20.63;47.64;101312.03;5028744;28;20041;-70
2023/05/02 08:53:40;;;;;;;4.60;1.80;;;;;;;19.99;48.49;101152.00;5033375;28;20579;-70
2023/05/02 08:56:07;;;;;;;3.22;1.13;;;;;;;21.81;47.90;101311.19;5036121;28;20131;-70
2023/05/02 08:58:35;;;;;;;1.70;1.08;;;;;;;20.88;48.68;101194.81;5035041;28;20124;-69
2023/05/02 09:01:02;;;;;;;2.28;1.35;;;;;;;21.57;45.78;101336.03;5036424;28;20771;-69
2023/05/02 09:03:33;;;;;;;1.73;0.90;;;;;;;22.19;44.69;101303.69;5042067;28;20077;-71
2023/05/02 09:06:11;;;;;;;3.00;1.48;;;;;;;21.61;45.84;101233.50;5032416;28;20053;-71
2023/05/02 09:08:37;;;;;;;3.38;1.77;;;;;;;22.27;46.46;101295.47;5032163;28;20132;-69
2023/05/02 09:11:04;;;;;;;1.77;1.08;;;;;;;22.08;44.81;101233.72;5033688;28;20057;-68
2023/05/02 09:13:35;;;;;;;3.38;2.25;;;;;;;22.93;45.63;101310.03;5034882;28;20041;-70
2023/05/02 09:16:05;;;;;;;2.50;1.60;;;;;;;22.02;43.88;101311.44;5034408;28;21862;-69
2023/05/02 09:18:34;;;;;;;2.05;1.20;;;;;;;21.89;43.30;101284.22;5028747;28;20115;-71
2023/05/02 09:21:05;;;;;;;1.70;1.02;;;;;;;22.74;43.89;101223.34;5032402;28;20053;-70
2023/05/02 09:23:38;;;;;;;2.08;1.30;;;;;;;23.44;42.72;101318.84;5030582;28;20045;-69
2023/05/02 09:26:11;;;;;;;3.33;1.65;;;;;;;21.60;43.29;101187.22;5033029;28;20041;-71
2023/05/02 09:28:41;;;;;;;4.28;2.70;;;;;;;22.43;43.79;101195.06;5033764;28;20100;-71
2023/05/02 09:31:09;;;;;;;3.60;1.20;;;;;;;21.96;43.49;101293.81;5031759;28;20047;-72
2023/05/02 09:33:35;;;;;;;2.83;1.42;;;;;;;22.57;45.63;101281.94;5037621;28;20127;-70
2023/05/02 09:36:01;;;;;;;3.53;1.58;;;;;;;23.47;44.74;101296.41;5025272;28;20470;-70
2023/05/02 09:38:26;;;;;;;3.28;1.52;;;;;;;23.81;45.24;101290.59;5034418;28;20124;-70
2023/05/02 09:40:55;;;;;;;3.85;2.15;;;;;;;23.04;45.99;101132.97;5031659;28;20552;-71
2023/05/02 09:43:21;;;;;;;3.13;1.90;;;;;;;22.96;44.75;101242.13;5030589;28;20050;-69
2023/05/02 09:46:00;;;;;;;3.85;1.55;;;;;;;22.70;44.18;101219.88;5024859;28;20037;-71
2023/05/02 09:48:27;;;;;;;3.65;1.88;;;;;;;23.25;43.24;101291.91;5017711;28;20087;-69
2023/05/02 09:50:53;;;;;;;2.95;1.00;;;;;;;23.99;43.30;101270.19;5031679;28;20190;-69
2023/05/02 09:53:18;;;;;;;3.30;1.42;;;;;;;23.48;42.25;101268.69;5028515;28;20261;-69
2023/05/02 09:55:44;;;;;;;2.22;1.30;;;;;;;24.60;42.47;101285.47;5021206;28;20037;-71
2023/05/02 09:58:23;;;;;;;2.67;1.13;;;;;;;24.12;43.26;101300.94;5027122;28;20095;-70
2023/05/02 10:00:50;;;;;;;3.53;2.13;;;;;;;23.42;43.28;101207.34;5026391;28;20077;-69
2023/05/02 10:03:17;;;;;;;2.97;1.58;;;;;;;23.78;42.50;101271.97;5026017;28;20049;-72
2023/05/02 10:05:45;;;;;;;5.68;1.63;;;;;;;23.23;42.96;101202.72;5019374;28;20084;-70
2023/05/02 10:08:11;;;;;;;2.42;1.77;;;;;;;22.04;42.80;101206.22;5024083;28;20052;-71
2023/05/02 10:10:38;;;;;;;2.65;1.35;;;;;;;23.90;42.86;101185.66;5030290;28;20080;-70
2023/05/02 10:13:05;;;;;;;23.20;9.23;;;;;;;24.39;44.15;101204.09;5030626;28;20386;-70
2023/05/02 10:15:32;;;;;;;7.55;2.65;;;;;;;23.21;44.09;101238.53;5047737;28;20056;-70
2023/05/02 10:18:01;;;;;;;26.10;3.88;;;;;;;24.29;42.19;101192.91;5033530;28;20056;-70
2023/05/02 10:20:35;;;;;;;3.40;1.70;;;;;;;25.07;41.07;101236.75;5042879;28;20056;-71
2023/05/02 10:23:02;;;;;;;30.65;8.55;;;;;;;24.18;41.60;101260.41;5034029;28;20095;-70
2023/05/02 10:25:28;;;;;;;15.02;2.05;;;;;;;24.55;41.52;101248.09;5034060;28;20746;-71
2023/05/02 10:27:57;;;;;;;21.42;7.53;;;;;;;25.28;40.89;101222.31;5028109;28;20049;-69
2023/05/02 10:30:23;;;;;;;3.13;1.98;;;;;;;24.58;40.54;101256.03;5021544;28;20036;-70
2023/05/02 10:32:51;;;;;;;3.17;1.73;;;;;;;25.24;41.12;101250.31;5025666;28;20575;-70
2023/05/02 10:35:17;;;;;;;4.38;1.63;;;;;;;25.17;41.38;101232.72;5024057;28;20529;-73
2023/05/02 10:37:44;;;;;;;2.17;1.50;;;;;;;23.56;41.42;101173.69;5026300;28;20546;-74
2023/05/02 10:40:12;;;;;;;4.05;2.20;;;;;;;25.35;41.28;101249.78;5026083;28;20453;-76
2023/05/02 10:42:44;;;;;;;1.60;1.02;;;;;;;25.03;38.61;101219.94;5038556;28;20048;-74
2023/05/02 10:45:28;;;;;;;5.67;1.83;;;;;;;23.41;38.56;101131.44;5044417;28;20057;-75
2023/05/02 10:48:12;;;;;;;2.72;1.55;;;;;;;23.77;40.64;101209.44;5045952;28;20804;-76
2023/05/02 10:50:46;;;;;;;3.33;1.65;;;;;;;25.39;39.23;101202.16;5052301;28;20045;-71
2023/05/02 10:53:45;;;;;;;1.40;0.95;;;;;;;25.12;37.06;101247.28;5045077;28;20045;-71
2023/05/02 10:56:21;;;;;;;2.75;1.10;;;;;;;24.28;39.77;101218.00;5052169;28;20182;-73
2023/05/02 10:58:50;;;;;;;3.95;1.42;;;;;;;25.26;39.31;101250.22;5046817;28;20059;-71
2023/05/02 11:01:28;;;;;;;3.25;1.48;;;;;;;24.20;38.26;101167.34;5050184;28;20083;-71
2023/05/02 11:04:09;;;;;;;6.07;1.48;;;;;;;24.74;37.28;101253.50;5040524;28;20060;-71
2023/05/02 11:06:55;;;;;;;2.70;1.25;;;;;;;23.65;37.46;101118.84;5018099;28;20021;-72
2023/05/02 11:09:23;;;;;;;7.75;2.60;;;;;;;24.26;37.12;101249.38;5041402;28;20041;-72
2023/05/02 11:11:51;;;;;;;14.13;8.18;;;;;;;25.02;39.58;101217.31;5029706;28;20041;-75
2023/05/02 11:14:29;;;;;;;4.60;1.58;;;;;;;23.72;40.24;101254.31;5038693;28;20040;-75
2023/05/02 11:17:00;;;;;;;2.50;1.00;;;;;;;25.03;41.76;101244.13;5044464;28;20064;-74
2023/05/02 11:19:27;;;;;;;1.95;0.68;;;;;;;23.43;41.98;101244.75;5044908;28;20116;-74
2023/05/02 11:22:15;;;;;;;5.00;2.20;;;;;;;23.18;41.69;101244.88;5045239;28;20024;-73
2023/05/02 11:24:43;;;;;;;2.97;1.45;;;;;;;23.42;39.55;101157.31;5034130;28;20060;-73
2023/05/02 11:27:37;;;;;;;6.20;0.98;;;;;;;23.89;38.83;101248.25;5038864;28;20513;-74
2023/05/02 11:30:09;;;;;;;2.03;1.38;;;;;;;24.10;40.38;101246.47;5020217;28;20056;-73